Главная страница
METAR-TAF:

METAR-TAF

Аэропорты :

Massena, Нью-Йорк, США

широта: 44-56-09N, долгота: 074-50-44W, высота над уровнем моря: 66 м

Текущие метеонаблюдения

Эта сводка был подготовлена 1 час и 0 минут назад, в 15:53 UTC
Ветер 7 Узел от северо-западный с порывами до 14 Узел
Температура 24°C
Влажность 27%
Давление 1012 hPa
Видимость: 16.1 км
ясное небо

METAR: KMSS 121553Z AUTO 32007G14KT 10SM CLR 24/04 A2988 RMK AO2 SLP118 T02390044

Время: 12:53 (16:53 UTC)

Прогноз

Эта сводка был подготовлена 5 часа и 18 минут назад, в 11:35 UTC
Прогноз действительный с 12-го 12 UTC до 13-го 12 UTC
Ветер 4 Узел переменных направлений
Видимость: 10 км
Отдельные облака на высоте 20000 фута

TAF: KMSS 121135Z 1212/1312 VRB04KT P6SM SCT200

Метеонаблюдения и прогнозы для более 4000 аэропортов (сводки METAR и TAF).

Имеющиеся станции представлены на карте желтыми и красными точками.

Чтобы увидеть название станции, наведите на нее мышь.

Затем щелкните, чтобы увидеть метеонаблюдения и метеопрогнозы.

Управление картой: чтобы увеличить масштаб, щелкните зеленые кнопки с черным крестиком; чтобы уменьшить масштаб, щелкните зеленую кнопку с тире; для просмотра соседних карт щелкайте зеленые стрелки.


METAR-TAF: